Time;durP1;ratioP1;P1;durP2;ratioP2;P2;SDS_P1;SDS_P2;PMS_P1;PMS_P2;Temp;Humidity;BMP_temperature;BMP_pressure;BME280_temperature;BME280_humidity;BME280_pressure;Samples;Min_cycle;Max_cycle;Signal;HPM_P1;HPM_P2
2022/08/02 00:01:50;;;;;;;2.17;1.77;;;17.00;51.60;;;;;;5024572;28;20490;-52
2022/08/02 00:04:18;;;;;;;4.60;1.93;;;17.00;41.00;;;;;;5021999;28;20474;-54
2022/08/02 00:06:45;;;;;;;4.07;2.27;;;17.10;31.20;;;;;;5024278;28;20934;-52
2022/08/02 00:09:12;;;;;;;3.97;1.87;;;17.00;23.70;;;;;;5022026;28;20491;-52
2022/08/02 00:11:38;;;;;;;2.70;1.97;;;17.10;26.30;;;;;;5023300;28;20471;-53
2022/08/02 00:14:05;;;;;;;3.80;1.90;;;17.00;38.40;;;;;;5021787;28;20498;-53
2022/08/02 00:16:32;;;;;;;2.60;1.97;;;17.00;43.00;;;;;;5023927;28;21039;-54
2022/08/02 00:18:58;;;;;;;3.97;1.83;;;17.00;50.90;;;;;;5021503;28;20546;-53
2022/08/02 00:21:26;;;;;;;3.93;1.97;;;17.00;60.70;;;;;;5022488;28;20518;-52
2022/08/02 00:23:53;;;;;;;3.23;1.80;;;17.00;65.70;;;;;;5023875;28;20482;-54
2022/08/02 00:26:19;;;;;;;4.13;2.00;;;17.00;64.50;;;;;;5020520;28;20462;-53
2022/08/02 00:28:46;;;;;;;4.13;1.90;;;17.00;53.60;;;;;;5019865;28;20501;-52
2022/08/02 00:31:13;;;;;;;5.20;1.63;;;17.10;64.90;;;;;;5022102;28;21009;-53
2022/08/02 00:33:40;;;;;;;4.97;2.20;;;17.00;71.50;;;;;;5023849;28;20459;-52
2022/08/02 00:36:07;;;;;;;7.83;1.70;;;17.00;82.00;;;;;;5022636;28;21133;-53
2022/08/02 00:38:35;;;;;;;2.60;1.50;;;17.00;86.60;;;;;;5021747;28;20980;-53
2022/08/02 00:41:01;;;;;;;4.97;1.60;;;17.00;81.00;;;;;;5021801;28;20518;-53
2022/08/02 00:43:28;;;;;;;3.67;1.70;;;17.00;74.50;;;;;;5023519;28;20490;-54
2022/08/02 00:45:54;;;;;;;8.97;1.53;;;17.00;85.20;;;;;;5021745;28;20502;-53
2022/08/02 00:48:21;;;;;;;7.30;2.03;;;17.00;81.50;;;;;;5024521;28;20824;-53
2022/08/02 00:50:48;;;;;;;4.30;1.73;;;17.00;76.70;;;;;;5022306;28;21057;-53
2022/08/02 00:53:14;;;;;;;4.40;2.17;;;17.00;68.10;;;;;;5022933;28;21007;-53
2022/08/02 00:55:42;;;;;;;3.60;1.93;;;17.00;65.40;;;;;;5022169;28;20497;-52
2022/08/02 00:58:09;;;;;;;4.83;1.77;;;17.00;61.20;;;;;;5020823;28;20483;-53
2022/08/02 01:00:35;;;;;;;2.40;2.07;;;17.00;66.00;;;;;;5024003;28;20523;-53
2022/08/02 01:03:02;;;;;;;5.03;2.30;;;16.90;64.50;;;;;;5025425;28;20499;-54
2022/08/02 01:05:28;;;;;;;3.00;1.50;;;16.90;62.70;;;;;;5023955;28;20548;-52
2022/08/02 01:07:55;;;;;;;3.93;1.93;;;16.90;51.60;;;;;;5021489;28;20491;-52
2022/08/02 01:10:22;;;;;;;3.03;1.97;;;16.80;62.00;;;;;;5021616;28;20593;-52
2022/08/02 01:12:50;;;;;;;3.23;2.03;;;16.80;55.50;;;;;;5022199;28;20486;-53
2022/08/02 01:15:17;;;;;;;3.50;2.00;;;16.70;43.10;;;;;;5020049;28;20903;-51
2022/08/02 01:17:48;;;;;;;7.63;2.43;;;16.70;41.60;;;;;;5020324;28;20493;-53
2022/08/02 01:20:46;;;;;;;4.73;1.50;;;16.70;48.40;;;;;;5024360;28;20576;-53
2022/08/02 01:23:32;;;;;;;6.23;2.50;;;16.70;40.90;;;;;;5027284;28;20454;-53
2022/08/02 01:26:11;;;;;;;2.13;1.70;;;16.70;44.00;;;;;;5027720;28;20487;-52
2022/08/02 01:28:47;;;;;;;7.40;2.20;;;16.70;39.00;;;;;;5019007;28;21037;-53
2022/08/02 01:31:20;;;;;;;6.03;2.00;;;16.70;36.10;;;;;;5034308;28;20509;-53
2022/08/02 01:33:51;;;;;;;2.83;1.70;;;16.70;34.70;;;;;;5029961;28;20517;-53
2022/08/02 01:36:20;;;;;;;3.20;2.37;;;16.70;32.00;;;;;;5026153;28;20486;-53
2022/08/02 01:38:49;;;;;;;3.00;1.90;;;16.70;31.00;;;;;;5027358;28;20490;-54
2022/08/02 01:41:20;;;;;;;1.97;1.60;;;16.70;35.20;;;;;;5028367;28;20486;-53
2022/08/02 01:43:51;;;;;;;2.57;2.20;;;16.70;42.70;;;;;;5026863;28;20960;-52
2022/08/02 01:46:18;;;;;;;2.87;1.63;;;16.70;33.50;;;;;;5020829;28;20542;-54
2022/08/02 01:48:47;;;;;;;3.13;2.33;;;16.70;28.10;;;;;;5021985;28;20491;-53
2022/08/02 01:51:17;;;;;;;2.97;1.80;;;16.70;35.30;;;;;;5025299;28;20561;-52
2022/08/02 01:53:48;;;;;;;2.90;1.87;;;16.70;32.90;;;;;;5022089;28;20486;-53
2022/08/02 01:56:17;;;;;;;5.60;2.67;;;16.80;28.80;;;;;;5023800;28;20489;-53
2022/08/02 01:58:45;;;;;;;4.07;1.53;;;16.70;26.90;;;;;;5021610;28;20590;-53
2022/08/02 02:01:14;;;;;;;2.50;1.80;;;16.80;28.70;;;;;;5021962;28;20582;-52
2022/08/02 02:03:41;;;;;;;7.60;2.73;;;16.80;23.20;;;;;;5019866;28;20557;-52
2022/08/02 02:06:11;;;;;;;7.60;1.90;;;16.90;32.80;;;;;;5024142;28;20474;-54
2022/08/02 02:08:40;;;;;;;2.00;1.87;;;16.80;22.80;;;;;;5025077;28;20562;-53
2022/08/02 02:11:07;;;;;;;5.60;2.10;;;16.90;28.20;;;;;;5020509;28;20576;-53
2022/08/02 02:13:36;;;;;;;1.77;1.50;;;16.80;32.60;;;;;;5024733;28;20494;-53
2022/08/02 02:16:05;;;;;;;7.30;1.73;;;16.80;26.90;;;;;;5025942;28;20549;-53
2022/08/02 02:18:39;;;;;;;2.50;2.30;;;16.90;24.70;;;;;;5023821;28;20529;-53
2022/08/02 02:21:07;;;;;;;6.13;2.43;;;16.80;30.50;;;;;;5022895;28;20487;-52
2022/08/02 02:23:34;;;;;;;3.30;2.13;;;16.80;28.40;;;;;;5024408;28;20513;-52
2022/08/02 02:26:02;;;;;;;2.00;1.80;;;16.80;35.10;;;;;;5022904;28;20498;-51
2022/08/02 02:28:32;;;;;;;3.90;2.10;;;16.80;37.70;;;;;;5027777;28;20501;-53
2022/08/02 02:31:03;;;;;;;4.97;2.10;;;16.80;34.80;;;;;;5027194;28;20479;-53
2022/08/02 02:33:31;;;;;;;2.30;1.93;;;16.80;36.90;;;;;;5025087;28;20471;-53
2022/08/02 02:36:01;;;;;;;6.53;1.80;;;16.70;39.10;;;;;;5024189;28;20498;-52
2022/08/02 02:38:31;;;;;;;5.73;2.20;;;16.70;35.60;;;;;;5023693;28;20466;-54
2022/08/02 02:41:01;;;;;;;4.93;1.47;;;16.60;30.20;;;;;;5023490;28;20510;-53
2022/08/02 02:43:30;;;;;;;5.60;1.97;;;16.60;31.30;;;;;;5025670;28;20584;-52
2022/08/02 02:45:57;;;;;;;5.07;2.33;;;16.60;36.00;;;;;;5021823;28;20479;-52
2022/08/02 02:48:26;;;;;;;4.13;2.20;;;16.50;24.50;;;;;;5024030;28;20494;-52
2022/08/02 02:50:53;;;;;;;6.03;2.00;;;16.40;30.30;;;;;;5020934;28;20482;-54
2022/08/02 02:53:23;;;;;;;4.90;2.00;;;16.40;22.30;;;;;;5022359;28;20499;-53
2022/08/02 02:55:50;;;;;;;2.40;1.90;;;16.40;20.40;;;;;;5026844;28;20522;-52
2022/08/02 02:58:17;;;;;;;1.90;1.80;;;16.40;99.90;;;;;;5025524;28;20570;-52
2022/08/02 03:03:29;;;;;;;2.70;1.70;;;16.30;99.90;;;;;;5022737;28;20814;-52
2022/08/02 03:05:56;;;;;;;3.57;1.70;;;16.30;99.90;;;;;;5025182;28;20895;-52
2022/08/02 03:08:24;;;;;;;5.23;2.17;;;16.30;99.90;;;;;;5023709;28;20969;-52
2022/08/02 03:10:51;;;;;;;2.97;2.20;;;16.30;95.70;;;;;;5026520;28;20521;-52
2022/08/02 03:13:18;;;;;;;2.73;2.07;;;16.30;20.90;;;;;;5029063;28;20588;-53
2022/08/02 03:15:46;;;;;;;5.07;2.53;;;16.30;29.60;;;;;;5020905;28;20487;-52
2022/08/02 03:18:31;;;;;;;3.57;2.00;;;16.30;24.80;;;;;;5023866;28;20956;-52
2022/08/02 03:21:00;;;;;;;4.27;2.00;;;16.20;29.20;;;;;;5021468;28;20514;-52
2022/08/02 03:23:28;;;;;;;4.37;2.10;;;16.20;20.50;;;;;;5023910;28;20988;-52
2022/08/02 03:25:54;;;;;;;3.90;2.17;;;16.10;75.50;;;;;;5027343;28;20494;-53
2022/08/02 03:28:21;;;;;;;4.40;1.97;;;16.10;99.90;;;;;;5026426;28;20521;-53
2022/08/02 03:30:47;;;;;;;5.70;2.27;;;15.90;21.70;;;;;;5022453;28;20503;-53
2022/08/02 03:33:14;;;;;;;2.37;1.87;;;15.90;99.90;;;;;;5023283;28;20563;-52
2022/08/02 03:35:42;;;;;;;4.43;1.80;;;15.90;99.90;;;;;;5022018;28;20486;-53
2022/08/02 03:38:11;;;;;;;3.03;1.70;;;15.80;99.90;;;;;;5025222;28;20459;-53
2022/08/02 03:40:41;;;;;;;6.33;2.40;;;15.80;99.90;;;;;;5018879;28;20519;-53
2022/08/02 03:43:09;;;;;;;4.80;2.20;;;15.80;99.90;;;;;;5020758;28;20495;-52
2022/08/02 03:45:36;;;;;;;4.60;2.27;;;15.80;99.90;;;;;;5021853;28;20954;-52
2022/08/02 03:48:04;;;;;;;4.20;2.20;;;15.70;99.90;;;;;;5025748;28;20882;-53
2022/08/02 03:50:32;;;;;;;4.13;2.77;;;15.60;99.90;;;;;;5021496;28;20518;-52
2022/08/02 03:53:00;;;;;;;3.27;2.20;;;15.60;99.90;;;;;;5020954;28;20455;-53
2022/08/02 03:55:26;;;;;;;5.77;3.17;;;15.60;99.90;;;;;;5019846;28;21067;-53
2022/08/02 03:57:54;;;;;;;5.23;3.27;;;15.60;99.90;;;;;;5024373;28;20467;-53
2022/08/02 04:00:22;;;;;;;5.03;2.60;;;15.50;99.90;;;;;;5022115;28;20537;-53
2022/08/02 04:02:49;;;;;;;7.80;2.73;;;15.50;99.90;;;;;;5022499;28;20483;-53
2022/08/02 04:05:17;;;;;;;2.70;2.47;;;15.50;99.90;;;;;;5020651;28;20997;-53
2022/08/02 04:07:43;;;;;;;5.30;2.70;;;15.50;99.90;;;;;;5022151;28;22092;-52
2022/08/02 04:10:11;;;;;;;3.37;2.60;;;15.50;99.90;;;;;;5020780;28;20478;-52
2022/08/02 04:12:38;;;;;;;6.63;2.43;;;15.40;99.90;;;;;;5023262;28;21039;-51
2022/08/02 04:15:08;;;;;;;4.37;2.73;;;15.40;99.90;;;;;;5021644;28;20525;-52
2022/08/02 04:17:40;;;;;;;7.93;2.90;;;15.50;99.90;;;;;;5021253;28;21181;-53
2022/08/02 04:20:12;;;;;;;6.30;2.80;;;15.50;99.90;;;;;;5021121;28;20503;-52
2022/08/02 04:22:45;;;;;;;4.10;2.10;;;15.50;99.90;;;;;;5020111;28;20483;-52
2022/08/02 04:25:12;;;;;;;4.30;2.47;;;15.60;99.90;;;;;;5027205;28;20487;-52
2022/08/02 04:27:40;;;;;;;7.37;3.23;;;15.50;99.90;;;;;;5022368;28;20487;-52
2022/08/02 04:30:10;;;;;;;3.80;2.40;;;15.60;99.90;;;;;;5026737;28;20549;-52
2022/08/02 04:32:37;;;;;;;3.87;2.17;;;15.60;99.90;;;;;;5019670;28;21121;-53
2022/08/02 04:35:04;;;;;;;5.43;2.67;;;15.60;99.90;;;;;;5023316;28;20490;-52
2022/08/02 04:37:31;;;;;;;3.53;2.40;;;15.60;99.90;;;;;;5022533;28;20489;-51
2022/08/02 04:39:57;;;;;;;5.20;2.20;;;15.60;99.90;;;;;;5023346;28;20510;-52
2022/08/02 04:42:26;;;;;;;4.90;2.50;;;15.60;99.90;;;;;;5021161;28;20601;-52
2022/08/02 04:44:54;;;;;;;5.30;2.27;;;15.60;81.60;;;;;;5020516;28;20561;-52
2022/08/02 04:47:22;;;;;;;2.63;2.00;;;15.70;38.00;;;;;;5023874;28;20498;-52
2022/08/02 04:49:48;;;;;;;9.27;2.17;;;15.70;46.20;;;;;;5019147;28;20498;-52
2022/08/02 04:52:15;;;;;;;5.10;2.20;;;15.60;51.60;;;;;;5023001;28;20483;-52
2022/08/02 04:54:41;;;;;;;4.47;2.10;;;15.70;60.10;;;;;;5021994;28;21002;-52
2022/08/02 04:59:48;;;;;;;4.23;2.27;;;15.70;63.10;;;;;;5024461;28;20466;-52
2022/08/02 05:02:15;;;;;;;7.00;2.03;;;15.80;65.60;;;;;;5021126;28;20586;-52
2022/08/02 05:04:43;;;;;;;2.17;1.97;;;15.70;63.50;;;;;;5022707;28;20542;-51
2022/08/02 05:07:10;;;;;;;4.40;2.00;;;15.70;76.40;;;;;;5027257;28;20513;-51
2022/08/02 05:09:36;;;;;;;5.20;2.30;;;15.80;78.10;;;;;;5027150;28;20568;-51
2022/08/02 05:12:03;;;;;;;10.80;2.10;;;15.80;74.10;;;;;;5026909;28;20988;-53
2022/08/02 05:14:30;;;;;;;5.83;2.60;;;15.90;74.70;;;;;;5025513;28;20525;-52
2022/08/02 05:16:56;;;;;;;6.17;2.20;;;15.90;80.30;;;;;;5026505;28;20839;-51
2022/08/02 05:19:23;;;;;;;9.17;2.57;;;15.90;83.30;;;;;;5025307;28;20521;-52
2022/08/02 05:21:51;;;;;;;3.97;2.30;;;16.00;83.50;;;;;;5023951;28;21228;-52
2022/08/02 05:24:17;;;;;;;2.90;1.83;;;16.00;88.00;;;;;;5025270;28;20462;-53
2022/08/02 05:26:44;;;;;;;3.73;1.97;;;16.00;93.70;;;;;;5026459;28;20490;-51
2022/08/02 05:29:11;;;;;;;11.83;2.60;;;16.10;95.50;;;;;;5025359;28;20530;-51
2022/08/02 05:31:37;;;;;;;7.20;2.33;;;16.10;99.90;;;;;;5018036;28;20458;-52
2022/08/02 05:34:04;;;;;;;7.23;2.37;;;16.10;99.90;;;;;;5024984;28;20490;-51
2022/08/02 05:36:30;;;;;;;6.03;2.03;;;16.20;99.90;;;;;;5025081;28;20920;-52
2022/08/02 05:38:58;;;;;;;8.60;2.67;;;16.30;99.90;;;;;;5026246;28;20548;-52
2022/08/02 05:41:25;;;;;;;5.07;2.33;;;16.40;99.90;;;;;;5023878;28;20556;-52
2022/08/02 05:43:51;;;;;;;3.67;1.70;;;16.50;99.90;;;;;;5025394;28;20902;-51
2022/08/02 05:46:18;;;;;;;6.53;2.03;;;16.60;99.90;;;;;;5022071;28;20486;-53
2022/08/02 05:48:45;;;;;;;8.40;2.37;;;16.60;99.90;;;;;;5025095;28;20462;-52
2022/08/02 05:51:14;;;;;;;10.10;2.07;;;16.70;99.90;;;;;;5024420;28;20489;-52
2022/08/02 05:53:46;;;;;;;6.60;2.53;;;16.80;99.90;;;;;;5025701;28;20552;-52
2022/08/02 05:56:21;;;;;;;14.17;2.47;;;16.90;1.40;;;;;;5023882;28;20495;-52
2022/08/02 05:58:53;;;;;;;6.27;2.40;;;17.00;99.90;;;;;;5024121;28;20451;-52
2022/08/02 06:01:26;;;;;;;11.30;2.47;;;17.10;99.90;;;;;;5022607;28;20478;-52
2022/08/02 06:03:57;;;;;;;14.50;3.10;;;17.10;99.90;;;;;;5028262;28;20493;-52
2022/08/02 06:06:26;;;;;;;5.80;2.00;;;17.20;99.90;;;;;;5023705;28;20550;-52
2022/08/02 06:08:58;;;;;;;9.23;2.10;;;17.40;99.90;;;;;;5024507;28;20462;-52
2022/08/02 06:11:35;;;;;;;4.73;2.70;;;17.50;99.90;;;;;;5025606;28;20887;-51
2022/08/02 06:14:03;;;;;;;11.07;2.47;;;17.60;99.90;;;;;;5021746;28;20996;-52
2022/08/02 06:16:31;;;;;;;10.10;3.77;;;17.70;99.90;;;;;;5024923;28;21042;-52
2022/08/02 06:18:58;;;;;;;8.57;4.77;;;17.80;20.10;;;;;;5027439;28;20545;-52
2022/08/02 06:21:26;;;;;;;17.63;5.77;;;17.90;25.70;;;;;;5024348;28;20877;-52
2022/08/02 06:23:53;;;;;;;19.53;7.00;;;17.90;29.60;;;;;;5023987;28;20482;-51
2022/08/02 06:26:22;;;;;;;14.83;6.17;;;18.00;25.50;;;;;;5034910;28;21256;-53
2022/08/02 06:28:52;;;;;;;14.83;6.83;;;18.10;23.50;;;;;;5023068;28;20490;-53
2022/08/02 06:31:19;;;;;;;22.87;6.73;;;18.20;24.20;;;;;;5021454;28;20537;-53
2022/08/02 06:33:46;;;;;;;22.00;9.50;;;18.20;24.40;;;;;;5022124;28;20505;-51
2022/08/02 06:36:19;;;;;;;25.93;9.80;;;18.30;94.10;;;;;;5024754;28;20490;-52
2022/08/02 06:38:53;;;;;;;17.77;8.33;;;18.30;22.70;;;;;;5024201;28;21198;-53
2022/08/02 06:41:20;;;;;;;22.60;7.80;;;18.30;20.20;;;;;;5024339;28;20529;-52
2022/08/02 06:43:53;;;;;;;16.37;6.83;;;18.30;86.70;;;;;;5026048;28;20510;-52
2022/08/02 06:46:20;;;;;;;16.50;6.00;;;18.40;23.30;;;;;;5025754;28;20497;-52
2022/08/02 06:48:47;;;;;;;8.90;4.40;;;18.40;34.10;;;;;;5021146;28;20487;-53
2022/08/02 06:51:14;;;;;;;12.20;4.60;;;18.50;39.70;;;;;;5022965;28;20591;-52
2022/08/02 06:53:41;;;;;;;8.53;2.20;;;18.50;49.70;;;;;;5017899;28;20542;-53
2022/08/02 06:56:08;;;;;;;5.00;2.47;;;18.50;64.50;;;;;;5024527;28;20494;-51
2022/08/02 06:58:35;;;;;;;5.03;2.60;;;18.60;75.90;;;;;;5020133;28;21805;-51
2022/08/02 07:01:06;;;;;;;6.10;1.83;;;18.70;67.60;;;;;;5019400;28;21637;-50
2022/08/02 07:03:33;;;;;;;5.07;2.10;;;18.90;81.70;;;;;;5017894;28;20482;-53
2022/08/02 07:05:59;;;;;;;12.43;2.33;;;18.90;99.90;;;;;;5026198;28;20498;-52
2022/08/02 07:08:31;;;;;;;11.43;2.00;;;19.00;95.80;;;;;;5025589;28;20490;-51
2022/08/02 07:10:59;;;;;;;6.00;1.83;;;19.00;99.90;;;;;;5022961;28;20524;-51
2022/08/02 07:13:26;;;;;;;5.47;2.50;;;19.10;99.90;;;;;;5025779;28;20462;-51
2022/08/02 07:15:53;;;;;;;6.93;1.80;;;19.20;99.90;;;;;;5026989;28;20542;-51
2022/08/02 07:18:21;;;;;;;5.57;1.80;;;19.30;99.90;;;;;;5029720;28;20957;-51
2022/08/02 07:20:48;;;;;;;11.87;2.10;;;19.30;99.90;;;;;;5028084;28;20503;-51
2022/08/02 07:23:14;;;;;;;8.20;2.80;;;19.40;99.90;;;;;;5030658;28;20510;-51
2022/08/02 07:25:42;;;;;;;6.80;1.90;;;19.50;99.90;;;;;;5023187;28;20471;-51
2022/08/02 07:28:10;;;;;;;8.33;1.87;;;19.50;99.90;;;;;;5028251;28;20498;-51
2022/08/02 07:30:36;;;;;;;3.60;1.40;;;19.60;99.90;;;;;;5021253;28;20518;-51
2022/08/02 07:33:04;;;;;;;6.77;1.30;;;19.60;99.90;;;;;;5028230;28;20879;-52
2022/08/02 07:35:32;;;;;;;2.67;2.07;;;19.60;99.90;;;;;;5030296;28;20524;-51
2022/08/02 07:37:59;;;;;;;8.10;2.23;;;19.70;99.90;;;;;;5026875;28;21046;-52
2022/08/02 07:40:26;;;;;;;2.90;1.53;;;19.70;99.90;;;;;;5029069;28;20514;-52
2022/08/02 07:42:54;;;;;;;12.90;2.43;;;19.70;99.90;;;;;;5029129;28;20479;-52
2022/08/02 07:45:22;;;;;;;8.23;2.30;;;19.70;99.90;;;;;;5025482;28;20862;-52
2022/08/02 07:47:50;;;;;;;5.20;1.60;;;19.80;99.90;;;;;;5029115;28;20864;-52
2022/08/02 07:50:19;;;;;;;5.80;2.17;;;19.80;99.90;;;;;;5022356;28;20488;-52
2022/08/02 07:52:47;;;;;;;7.00;1.97;;;19.80;99.90;;;;;;5025753;28;20483;-51
2022/08/02 07:55:16;;;;;;;5.27;2.00;;;19.90;99.90;;;;;;5033088;28;20490;-52
2022/08/02 07:57:43;;;;;;;11.53;2.10;;;19.90;99.90;;;;;;5029968;28;20454;-51
2022/08/02 08:00:11;;;;;;;4.83;1.53;;;20.00;99.90;;;;;;5028008;28;20517;-52
2022/08/02 08:02:38;;;;;;;4.23;1.63;;;20.10;99.90;;;;;;5029251;28;21000;-51
2022/08/02 08:05:05;;;;;;;5.37;1.67;;;20.10;99.90;;;;;;5027079;28;20465;-52
2022/08/02 08:07:32;;;;;;;7.17;1.80;;;20.20;99.90;;;;;;5029066;28;20517;-53
2022/08/02 08:10:00;;;;;;;3.03;1.93;;;20.30;99.90;;;;;;5026698;28;20510;-52
2022/08/02 08:12:27;;;;;;;5.50;1.80;;;20.40;99.90;;;;;;5033479;28;20463;-52
2022/08/02 08:14:54;;;;;;;12.67;2.70;;;20.40;99.90;;;;;;5029530;28;20513;-52
2022/08/02 08:17:20;;;;;;;8.30;2.20;;;20.50;99.90;;;;;;5023900;28;20459;-51
2022/08/02 08:19:47;;;;;;;3.10;2.00;;;20.50;99.90;;;;;;5028845;28;20506;-51
2022/08/02 08:22:13;;;;;;;11.20;2.20;;;20.60;99.90;;;;;;5029006;28;21073;-52
2022/08/02 08:24:40;;;;;;;3.33;1.63;;;20.70;99.90;;;;;;5017606;28;20514;-51
2022/08/02 08:27:13;;;;;;;8.03;1.80;;;20.80;99.90;;;;;;5017849;28;21591;-51
2022/08/02 08:29:40;;;;;;;3.87;1.80;;;20.90;99.90;;;;;;5020628;28;20500;-52
2022/08/02 08:32:07;;;;;;;4.87;1.67;;;21.00;99.90;;;;;;5051424;23;20970;-52
2022/08/02 08:34:34;;;;;;;5.63;1.97;;;21.00;99.90;;;;;;5044049;28;20457;-52
2022/08/02 08:37:01;;;;;;;3.47;1.63;;;21.00;99.90;;;;;;5035606;28;21622;-52
2022/08/02 08:39:28;;;;;;;6.03;2.07;;;21.10;99.90;;;;;;5046708;28;20531;-51
2022/08/02 08:41:55;;;;;;;3.30;2.10;;;21.10;99.90;;;;;;5043080;28;20521;-51
2022/08/02 08:44:23;;;;;;;4.73;1.53;;;21.20;99.90;;;;;;5024496;28;20530;-52
2022/08/02 08:46:50;;;;;;;6.37;2.00;;;21.30;99.90;;;;;;5018482;28;20544;-52
2022/08/02 08:49:22;;;;;;;5.80;2.00;;;21.50;99.90;;;;;;5014430;28;20945;-52
2022/08/02 08:51:53;;;;;;;4.97;1.90;;;21.50;99.90;;;;;;5024410;28;20518;-51
2022/08/02 08:54:24;;;;;;;5.27;1.70;;;21.60;99.90;;;;;;5020235;28;20479;-51
2022/08/02 08:56:52;;;;;;;5.33;1.80;;;21.60;99.90;;;;;;5021370;28;20576;-51
2022/08/02 08:59:19;;;;;;;5.83;1.40;;;21.70;99.90;;;;;;5016084;28;20467;-52
2022/08/02 09:01:48;;;;;;;5.90;1.87;;;21.80;99.90;;;;;;5025061;28;20506;-51
2022/08/02 09:04:14;;;;;;;3.97;1.87;;;22.00;99.90;;;;;;5028170;28;20487;-51
2022/08/02 09:06:41;;;;;;;5.90;1.80;;;22.00;99.90;;;;;;5022714;28;20491;-51
2022/08/02 09:09:08;;;;;;;3.20;1.43;;;22.20;99.90;;;;;;5032965;28;20458;-50
2022/08/02 09:11:35;;;;;;;3.13;1.80;;;22.40;99.90;;;;;;5033926;28;21067;-51
2022/08/02 09:14:02;;;;;;;4.03;1.97;;;22.80;99.90;;;;;;5023481;28;21027;-52
2022/08/02 09:16:34;;;;;;;6.07;1.80;;;23.30;99.90;;;;;;5030535;28;20584;-52
2022/08/02 09:19:17;;;;;;;1.57;1.20;;;23.60;99.90;;;;;;5022826;28;20508;-52
2022/08/02 09:21:44;;;;;;;6.13;1.77;;;23.60;99.90;;;;;;5014323;28;20481;-52
2022/08/02 09:24:18;;;;;;;7.20;1.53;;;23.80;99.90;;;;;;5028265;28;20514;-51
2022/08/02 09:26:46;;;;;;;9.93;2.13;;;23.80;99.90;;;;;;5019079;28;20497;-51
2022/08/02 09:29:13;;;;;;;3.60;1.77;;;23.80;99.90;;;;;;5024014;28;20466;-51
2022/08/02 09:31:40;;;;;;;3.03;1.80;;;23.60;99.90;;;;;;5019217;28;20498;-51
2022/08/02 09:34:08;;;;;;;3.77;1.63;;;23.40;99.90;;;;;;5028049;28;20471;-52
2022/08/02 09:36:40;;;;;;;4.40;1.60;;;23.30;99.90;;;;;;5033995;28;20474;-52
2022/08/02 09:39:08;;;;;;;4.80;1.30;;;23.30;99.90;;;;;;5021817;28;20458;-50
2022/08/02 09:41:37;;;;;;;3.10;1.57;;;23.10;99.90;;;;;;5030040;28;20492;-52
2022/08/02 09:44:05;;;;;;;6.83;2.40;;;23.10;99.90;;;;;;5024298;28;20519;-50
2022/08/02 09:46:36;;;;;;;7.47;2.83;;;23.30;99.90;;;;;;5027686;28;20469;-51
2022/08/02 09:49:04;;;;;;;5.60;2.30;;;23.40;99.90;;;;;;5024916;28;20469;-51
2022/08/02 09:51:35;;;;;;;6.33;1.60;;;23.30;99.90;;;;;;5027569;28;20502;-51
2022/08/02 09:54:05;;;;;;;10.60;2.87;;;23.40;99.90;;;;;;5025043;28;20447;-52
2022/08/02 09:56:42;;;;;;;3.70;2.20;;;23.30;99.90;;;;;;5017545;28;20460;-51
2022/08/02 09:59:09;;;;;;;3.60;1.77;;;23.40;99.90;;;;;;5023422;28;20486;-51
2022/08/02 10:01:37;;;;;;;4.53;2.00;;;23.40;99.90;;;;;;5022595;28;20625;-52
2022/08/02 10:04:05;;;;;;;9.23;2.10;;;23.60;99.90;;;;;;5024238;28;20510;-52
2022/08/02 10:06:34;;;;;;;4.07;1.70;;;23.60;99.90;;;;;;5034920;28;20494;-52
2022/08/02 10:09:00;;;;;;;5.43;1.70;;;23.80;99.90;;;;;;5022354;28;20917;-51
2022/08/02 10:11:28;;;;;;;5.33;2.00;;;23.80;99.90;;;;;;5028298;28;20513;-52
2022/08/02 10:13:55;;;;;;;3.60;1.80;;;23.80;99.90;;;;;;5042132;28;20462;-52
2022/08/02 10:16:23;;;;;;;5.40;1.67;;;23.90;99.90;;;;;;5034194;28;20487;-51
2022/08/02 10:18:50;;;;;;;4.73;1.73;;;23.90;99.90;;;;;;5023113;28;20549;-51
2022/08/02 10:21:22;;;;;;;4.10;3.30;;;23.80;99.90;;;;;;5024140;28;20837;-51
2022/08/02 10:23:52;;;;;;;8.43;1.93;;;23.80;99.90;;;;;;5025568;28;20518;-51
2022/08/02 10:26:20;;;;;;;7.60;1.80;;;23.70;99.90;;;;;;5028052;28;20490;-52
2022/08/02 10:28:49;;;;;;;4.53;1.40;;;23.90;99.90;;;;;;5027767;28;20462;-51
2022/08/02 10:31:20;;;;;;;4.40;2.10;;;23.60;99.90;;;;;;5028857;28;20463;-52
2022/08/02 10:33:49;;;;;;;3.07;1.50;;;23.70;99.90;;;;;;5029476;28;20462;-51
2022/08/02 10:36:17;;;;;;;3.40;1.83;;;23.70;99.90;;;;;;5029507;28;20463;-51
2022/08/02 10:38:45;;;;;;;2.43;1.40;;;23.90;99.90;;;;;;5022086;28;20466;-52
2022/08/02 10:41:13;;;;;;;9.90;3.30;;;24.10;99.90;;;;;;5036560;28;20482;-52
2022/08/02 10:43:47;;;;;;;10.83;1.70;;;24.10;99.90;;;;;;5031205;28;20507;-52
2022/08/02 10:46:25;;;;;;;7.00;1.77;;;23.90;99.90;;;;;;5016762;28;20966;-52
2022/08/02 10:49:02;;;;;;;8.23;4.30;;;24.00;99.90;;;;;;5029827;28;20454;-51
2022/08/02 10:52:05;;;;;;;3.87;2.37;;;24.20;99.90;;;;;;5025209;28;20467;-52
2022/08/02 10:54:35;;;;;;;4.70;1.60;;;24.20;99.90;;;;;;5034572;28;20458;-52
2022/08/02 10:57:14;;;;;;;6.73;2.83;;;24.40;99.90;;;;;;5030164;28;20517;-56
2022/08/02 10:59:41;;;;;;;7.07;1.70;;;24.50;99.90;;;;;;5029873;28;20969;-50
2022/08/02 11:02:07;;;;;;;4.00;1.73;;;24.40;99.90;;;;;;5021129;28;20630;-52
2022/08/02 11:05:04;;;;;;;10.30;2.20;;;24.40;99.90;;;;;;5029701;28;20541;-52
2022/08/02 11:07:37;;;;;;;2.93;1.10;;;24.50;99.90;;;;;;5023189;28;20495;-52
2022/08/02 11:10:30;;;;;;;4.60;1.80;;;24.60;99.90;;;;;;5036899;28;20579;-52
2022/08/02 11:13:05;;;;;;;8.03;1.50;;;24.80;99.90;;;;;;5030764;28;20515;-52
2022/08/02 11:15:51;;;;;;;5.80;1.80;;;24.50;99.90;;;;;;5026900;28;20536;-52
2022/08/02 11:18:19;;;;;;;11.33;4.20;;;24.60;99.90;;;;;;5036883;28;20811;-52
2022/08/02 11:20:46;;;;;;;4.77;1.53;;;24.60;99.90;;;;;;5023887;28;20498;-52
2022/08/02 11:23:34;;;;;;;6.90;1.43;;;24.60;99.90;;;;;;5023424;28;20482;-52
2022/08/02 11:26:04;;;;;;;5.70;2.00;;;24.70;99.90;;;;;;5024945;28;20469;-51
2022/08/02 11:28:32;;;;;;;5.23;2.13;;;24.70;99.90;;;;;;5028596;28;20470;-50
2022/08/02 11:31:00;;;;;;;12.30;1.33;;;24.90;99.90;;;;;;5032213;28;21009;-52
2022/08/02 11:33:31;;;;;;;2.50;1.03;;;24.90;99.90;;;;;;5034334;28;20490;-52
2022/08/02 11:36:01;;;;;;;2.67;1.27;;;25.10;99.90;;;;;;5034508;28;20495;-52
2022/08/02 11:38:28;;;;;;;4.40;1.47;;;25.00;99.90;;;;;;5025647;28;20825;-52
2022/08/02 11:40:54;;;;;;;4.03;1.47;;;25.00;99.90;;;;;;5030665;28;20459;-51
2022/08/02 11:43:23;;;;;;;2.50;1.40;;;25.10;99.90;;;;;;5040861;28;20490;-52
2022/08/02 11:45:53;;;;;;;4.93;1.47;;;25.20;99.90;;;;;;5029657;28;20486;-51
2022/08/02 11:48:33;;;;;;;3.27;1.30;;;25.10;99.90;;;;;;5032919;28;20546;-51
2022/08/02 11:51:08;;;;;;;3.50;1.60;;;25.10;99.90;;;;;;5028269;28;20882;-52
2022/08/02 11:53:42;;;;;;;4.63;1.50;;;25.00;99.90;;;;;;5027315;28;20605;-52
2022/08/02 11:56:09;;;;;;;6.73;1.73;;;25.20;99.90;;;;;;5018668;28;20450;-52
2022/08/02 11:58:35;;;;;;;2.10;1.23;;;25.20;99.90;;;;;;5034048;28;20536;-52
2022/08/02 12:01:03;;;;;;;1.63;1.13;;;25.40;99.90;;;;;;5015294;28;20525;-52
2022/08/02 12:03:34;;;;;;;3.60;1.60;;;25.40;99.90;;;;;;5030841;28;20530;-52
2022/08/02 12:06:01;;;;;;;9.43;1.40;;;25.30;99.90;;;;;;5029389;28;20930;-52
2022/08/02 12:08:27;;;;;;;2.23;1.17;;;25.40;99.90;;;;;;5026410;28;20467;-52
2022/08/02 12:10:54;;;;;;;6.40;1.87;;;25.40;99.90;;;;;;5028816;28;20458;-53
2022/08/02 12:13:21;;;;;;;4.60;1.40;;;25.50;99.90;;;;;;5030102;28;20522;-53
2022/08/02 12:15:47;;;;;;;6.10;1.20;;;25.40;99.90;;;;;;5028781;28;20462;-51
2022/08/02 12:21:02;;;;;;;2.97;1.30;;;25.40;99.90;;;;;;5030314;28;20944;-51
2022/08/02 12:23:30;;;;;;;1.93;1.27;;;25.70;99.90;;;;;;5029663;28;20526;-52
2022/08/02 12:26:01;;;;;;;2.63;1.40;;;25.80;99.90;;;;;;5031023;28;20540;-52
2022/08/02 12:28:27;;;;;;;3.57;1.60;;;25.80;99.90;;;;;;5029306;28;20490;-51
2022/08/02 12:30:56;;;;;;;2.30;1.10;;;26.00;99.90;;;;;;5026975;28;20455;-52
2022/08/02 12:33:26;;;;;;;5.50;1.37;;;26.00;99.90;;;;;;5025314;28;21034;-53
2022/08/02 12:35:53;;;;;;;2.60;1.60;;;25.80;99.90;;;;;;5027410;28;20474;-52
2022/08/02 12:38:19;;;;;;;4.87;1.20;;;25.70;99.90;;;;;;5032095;28;20466;-52
2022/08/02 12:40:46;;;;;;;2.60;1.20;;;25.80;99.90;;;;;;5024622;28;20493;-52
2022/08/02 12:43:18;;;;;;;3.33;1.53;;;26.00;99.90;;;;;;5031754;28;20548;-52
2022/08/02 12:45:47;;;;;;;3.37;1.50;;;26.10;99.90;;;;;;5025756;28;20483;-52
2022/08/02 12:48:14;;;;;;;3.23;1.00;;;26.20;99.90;;;;;;5028164;28;20944;-51
2022/08/02 12:50:42;;;;;;;3.23;1.33;;;26.20;99.90;;;;;;5027151;28;20497;-52
2022/08/02 12:53:11;;;;;;;2.77;1.47;;;25.70;99.90;;;;;;5028691;28;20536;-52
2022/08/02 12:55:47;;;;;;;1.93;1.27;;;26.00;99.90;;;;;;5022035;28;20850;-51
2022/08/02 12:58:14;;;;;;;5.70;1.50;;;26.00;99.90;;;;;;5024070;28;20498;-51
2022/08/02 13:00:41;;;;;;;4.43;1.33;;;26.00;99.90;;;;;;5029634;28;20601;-51
2022/08/02 13:03:08;;;;;;;4.27;1.10;;;26.30;99.90;;;;;;5026272;28;20488;-52